EPMO

Modlin Airport

Warsaw, Poland
METAR EPMO 170700Z 08005KT 3000 BR BKN017 M04/M04 Q1020 R08/290195
Observed Flight Rules
Dec-17 @ 07:00 UTC (28 minutes ago) Instrument Flight Rules
Wind Visibility Clouds Conditions
80° at 5 knots 2,993 meters
  • Broken at 1,700' AGL
  • Mist
Temperatures Readings
Current -4°C / 25°F
Dewpoint -4°C / 25°F
Humidity 100%
Altimeter 30.12" Hg
Pressure 1020 hPa
Elevation 104
METAR EPMO 170700Z 08005KT 3000 BR BKN017 M04/M04 Q1020 R08/290195
Observed Flight Rules
Dec-17 @ 07:00 UTC
(28 minutes ago)
IFR
Wind Visibility
80° at 5 knots 2,993 meters
Clouds
  • Broken at 1,700' AGL
Conditions
  • Mist
Temperature Dewpoint
-4°C / 25°F -4°C / 25°F
Humidity Altimeter Pressure
100% 30.12" Hg 1020 hPa